Lynch Station, Virginia
Current Conditions -  °F | °C
As of 4:54 AM on Sunday 26 Oct 2014 (Local Time) from KLYH Reporting Station
Clear Clear  
Wind Chill: 56°   Ceiling: Unl
Heat Index: 56°   Visibility: 10mi
Dew Point: 50°   Wind: 7mph
Humidity: 80%   Direction: 230°SW
Pressure: 29.79"   Gusts: NA
Location:  37.15°N, 79.3°W
Report Text: KLYH 260854Z AUTO 23006KT 10SM CLR 13/10 A2979 RMK AO2 SLP081 T01330100 58013
Loading
Personal Weather Stations






























Interactive Weather Map
Tropical Storm Tracking
New forecast layout! Learn more

10-Day Weather Forecast

Advertisements
Track Severe Weather on mobile